San Francisco, California
Traffic Map
Current Weather Conditions
San Francisco, California
Scattered Clouds
Scattered Clouds
54°
Feels Like: 54°
Wind Chill: 54° Ceiling: Unl
Heat Index: 54° Visibility: 10mi
Dew Point: 51° Wind: 12mph
Humidity: 90% Direction: 290° (WNW)
Pressure: 29.92in Gusts: 0mph
Raw Report DataKSFO 281356Z 29010KT 10SM FEW004 SCT200 12/11 A2992 RMK AO2 SLP131 T01220106
Traffic Incident Summary
Active as of:
Severity:
Category:
InformationThere was an issue retrieving the traffic information for this location. Please try a different location or try again shortly.
Advertisements
Track Severe Weather on mobile